La Pine, OR (97739)

1:49 PM PST on February 12, 2016 (GMT -0800)
Center Drive | | Change Station
CLOSE
Current Station
Personal Weather Station
Location: La Pine, OR
Elevation: 4250 ft
Nearby Weather Stations

Elev 4250 ft 43.71 °N, 121.52 °W | Updated 11 seconds ago

Partly Cloudy
Partly Cloudy
55.6 °F
Feels Like 55.6 °F
N
1.3
Wind Variable Wind from WSW
Gusts 2.5 mph

Today
High -- | Low -- °F
--% Chance of Precip.
Yesterday
High -- | Low -- °F
Precip. -- in
Pressure 30.11 in
Visibility 10.0 miles
Clouds Clear
Dew Point 33 °F
Humidity 42%
Rainfall 0.00 in
Snow Depth Not available.
7:09 AM 5:31 PM
Waxing Crescent, 24% visible
METAR KBDN 122135Z AUTO 22013G22KT 10SM CLR 17/M01 A3011 RMK AO2
Pressure 30.11 in
Visibility 10.0 miles
Clouds Clear
Dew Point 33 °F
Humidity 42%
Rainfall 0.00 in
Snow Depth Not available.
7:09 AM 5:31 PM
Waxing Crescent, 24% visible
METAR KBDN 122135Z AUTO 22013G22KT 10SM CLR 17/M01 A3011 RMK AO2

10-Day Weather Forecast

Almanac

Astronomy

Feb. 12, 2016 Rise Set
Actual Time
Civil Twilight
Nautical Twilight
Astronomical Twilight
Moon
Length of Visible Light
Length of Day
Tomorrow will be .
, % of the Moon is Illuminated

Today's Extremes

State Highs State Lows

Community

WunderPhotos

Upload Photos

1,892,408 photos uploaded!

WunderBlog® & News

Nearby

Air Quality

  Air Quality AQ Index Pollutant
Not available.

Snow Depth

Station Depth Elevation

Earthquake Activity

City Distance Mag. Time & Date
Minimum magnitude displayed is 2.5.

Coastal Water Temperatures

Place Temperature

Stations

Nearby Weather Stations

Station Location Temp. Windchill Dew Point Humidity Wind Precip. Elev Updated Type
                   

Watches & Warnings

There are currently no watches in effect.